sensor_id;sensor_type;location;lat;lon;timestamp;P1;durP1;ratioP1;P2;durP2;ratioP2
5521;SDS011;2783;48.730;8.006;2024-02-23T00:01:43;0.70;;;0.70;;
5521;SDS011;2783;48.730;8.006;2024-02-23T00:04:09;0.80;;;0.80;;
5521;SDS011;2783;48.730;8.006;2024-02-23T00:06:35;0.70;;;0.70;;
5521;SDS011;2783;48.730;8.006;2024-02-23T00:09:00;0.70;;;0.70;;
5521;SDS011;2783;48.730;8.006;2024-02-23T00:11:26;0.73;;;0.73;;
5521;SDS011;2783;48.730;8.006;2024-02-23T00:13:53;0.80;;;0.80;;
5521;SDS011;2783;48.730;8.006;2024-02-23T00:16:18;0.70;;;0.70;;
5521;SDS011;2783;48.730;8.006;2024-02-23T00:18:44;0.70;;;0.70;;
5521;SDS011;2783;48.730;8.006;2024-02-23T00:21:10;0.60;;;0.60;;
5521;SDS011;2783;48.730;8.006;2024-02-23T00:23:35;0.65;;;0.65;;
5521;SDS011;2783;48.730;8.006;2024-02-23T00:26:01;0.70;;;0.70;;
5521;SDS011;2783;48.730;8.006;2024-02-23T00:28:26;0.70;;;0.70;;
5521;SDS011;2783;48.730;8.006;2024-02-23T00:30:52;0.60;;;0.60;;
5521;SDS011;2783;48.730;8.006;2024-02-23T00:33:18;0.73;;;0.73;;
5521;SDS011;2783;48.730;8.006;2024-02-23T00:35:43;0.80;;;0.80;;
5521;SDS011;2783;48.730;8.006;2024-02-23T00:38:09;0.63;;;0.63;;
5521;SDS011;2783;48.730;8.006;2024-02-23T00:40:34;0.70;;;0.70;;
5521;SDS011;2783;48.730;8.006;2024-02-23T00:43:00;0.70;;;0.70;;
5521;SDS011;2783;48.730;8.006;2024-02-23T00:45:26;0.70;;;0.70;;
5521;SDS011;2783;48.730;8.006;2024-02-23T00:47:51;0.70;;;0.70;;
5521;SDS011;2783;48.730;8.006;2024-02-23T00:50:17;0.70;;;0.70;;
5521;SDS011;2783;48.730;8.006;2024-02-23T00:52:42;0.60;;;0.60;;
5521;SDS011;2783;48.730;8.006;2024-02-23T00:55:08;0.70;;;0.70;;
5521;SDS011;2783;48.730;8.006;2024-02-23T00:57:37;0.60;;;0.60;;
5521;SDS011;2783;48.730;8.006;2024-02-23T01:00:03;0.80;;;0.80;;
5521;SDS011;2783;48.730;8.006;2024-02-23T01:02:30;0.70;;;0.70;;
5521;SDS011;2783;48.730;8.006;2024-02-23T01:04:56;0.80;;;0.80;;
5521;SDS011;2783;48.730;8.006;2024-02-23T01:07:23;0.70;;;0.70;;
5521;SDS011;2783;48.730;8.006;2024-02-23T01:09:49;0.77;;;0.77;;
5521;SDS011;2783;48.730;8.006;2024-02-23T01:12:15;0.70;;;0.70;;
5521;SDS011;2783;48.730;8.006;2024-02-23T01:14:40;0.70;;;0.70;;
5521;SDS011;2783;48.730;8.006;2024-02-23T01:17:06;0.80;;;0.80;;
5521;SDS011;2783;48.730;8.006;2024-02-23T01:19:31;0.73;;;0.73;;
5521;SDS011;2783;48.730;8.006;2024-02-23T01:21:56;0.80;;;0.80;;
5521;SDS011;2783;48.730;8.006;2024-02-23T01:24:26;0.80;;;0.80;;
5521;SDS011;2783;48.730;8.006;2024-02-23T01:26:53;0.70;;;0.70;;
5521;SDS011;2783;48.730;8.006;2024-02-23T01:29:19;0.80;;;0.80;;
5521;SDS011;2783;48.730;8.006;2024-02-23T01:31:45;0.73;;;0.73;;
5521;SDS011;2783;48.730;8.006;2024-02-23T01:34:10;0.70;;;0.70;;
5521;SDS011;2783;48.730;8.006;2024-02-23T01:36:36;0.70;;;0.70;;
5521;SDS011;2783;48.730;8.006;2024-02-23T01:39:02;0.70;;;0.70;;
5521;SDS011;2783;48.730;8.006;2024-02-23T01:41:28;0.80;;;0.80;;
5521;SDS011;2783;48.730;8.006;2024-02-23T01:43:54;0.70;;;0.70;;
5521;SDS011;2783;48.730;8.006;2024-02-23T01:46:19;0.70;;;0.70;;
5521;SDS011;2783;48.730;8.006;2024-02-23T01:48:45;0.70;;;0.70;;
5521;SDS011;2783;48.730;8.006;2024-02-23T01:51:11;0.70;;;0.70;;
5521;SDS011;2783;48.730;8.006;2024-02-23T01:53:36;0.70;;;0.70;;
5521;SDS011;2783;48.730;8.006;2024-02-23T01:56:02;0.70;;;0.70;;
5521;SDS011;2783;48.730;8.006;2024-02-23T01:58:29;0.80;;;0.80;;
5521;SDS011;2783;48.730;8.006;2024-02-23T02:00:55;0.70;;;0.70;;
5521;SDS011;2783;48.730;8.006;2024-02-23T02:03:21;0.80;;;0.80;;
5521;SDS011;2783;48.730;8.006;2024-02-23T02:05:46;0.70;;;0.70;;
5521;SDS011;2783;48.730;8.006;2024-02-23T02:08:14;0.70;;;0.70;;
5521;SDS011;2783;48.730;8.006;2024-02-23T02:10:40;0.80;;;0.80;;
5521;SDS011;2783;48.730;8.006;2024-02-23T02:13:07;0.70;;;0.70;;
5521;SDS011;2783;48.730;8.006;2024-02-23T02:15:33;0.70;;;0.70;;
5521;SDS011;2783;48.730;8.006;2024-02-23T02:17:58;0.70;;;0.70;;
5521;SDS011;2783;48.730;8.006;2024-02-23T02:20:24;0.68;;;0.68;;
5521;SDS011;2783;48.730;8.006;2024-02-23T02:22:53;0.60;;;0.60;;
5521;SDS011;2783;48.730;8.006;2024-02-23T02:25:18;0.70;;;0.70;;
5521;SDS011;2783;48.730;8.006;2024-02-23T02:27:44;0.70;;;0.70;;
5521;SDS011;2783;48.730;8.006;2024-02-23T02:30:11;0.80;;;0.80;;
5521;SDS011;2783;48.730;8.006;2024-02-23T02:32:37;0.77;;;0.77;;
5521;SDS011;2783;48.730;8.006;2024-02-23T02:35:02;0.75;;;0.75;;
5521;SDS011;2783;48.730;8.006;2024-02-23T02:37:28;0.70;;;0.70;;
5521;SDS011;2783;48.730;8.006;2024-02-23T02:39:54;0.60;;;0.60;;
5521;SDS011;2783;48.730;8.006;2024-02-23T02:42:19;0.70;;;0.70;;
5521;SDS011;2783;48.730;8.006;2024-02-23T02:44:45;0.65;;;0.65;;
5521;SDS011;2783;48.730;8.006;2024-02-23T02:47:10;0.75;;;0.75;;
5521;SDS011;2783;48.730;8.006;2024-02-23T02:49:35;0.60;;;0.60;;
5521;SDS011;2783;48.730;8.006;2024-02-23T02:52:01;0.70;;;0.70;;
5521;SDS011;2783;48.730;8.006;2024-02-23T02:54:26;0.80;;;0.80;;
5521;SDS011;2783;48.730;8.006;2024-02-23T02:56:52;0.80;;;0.80;;
5521;SDS011;2783;48.730;8.006;2024-02-23T02:59:19;0.68;;;0.68;;
5521;SDS011;2783;48.730;8.006;2024-02-23T03:01:45;0.70;;;0.70;;
5521;SDS011;2783;48.730;8.006;2024-02-23T03:04:12;0.70;;;0.70;;
5521;SDS011;2783;48.730;8.006;2024-02-23T03:06:37;0.70;;;0.70;;
5521;SDS011;2783;48.730;8.006;2024-02-23T03:09:03;0.77;;;0.77;;
5521;SDS011;2783;48.730;8.006;2024-02-23T03:11:28;0.70;;;0.70;;
5521;SDS011;2783;48.730;8.006;2024-02-23T03:13:54;0.70;;;0.70;;
5521;SDS011;2783;48.730;8.006;2024-02-23T03:16:20;0.80;;;0.80;;
5521;SDS011;2783;48.730;8.006;2024-02-23T03:18:48;0.80;;;0.80;;
5521;SDS011;2783;48.730;8.006;2024-02-23T03:21:14;0.70;;;0.70;;
5521;SDS011;2783;48.730;8.006;2024-02-23T03:23:40;0.70;;;0.70;;
5521;SDS011;2783;48.730;8.006;2024-02-23T03:26:07;0.80;;;0.80;;
5521;SDS011;2783;48.730;8.006;2024-02-23T03:28:32;0.70;;;0.70;;
5521;SDS011;2783;48.730;8.006;2024-02-23T03:30:59;0.80;;;0.80;;
5521;SDS011;2783;48.730;8.006;2024-02-23T03:33:25;0.80;;;0.80;;
5521;SDS011;2783;48.730;8.006;2024-02-23T03:35:50;0.80;;;0.80;;
5521;SDS011;2783;48.730;8.006;2024-02-23T03:38:16;0.70;;;0.70;;
5521;SDS011;2783;48.730;8.006;2024-02-23T03:40:41;0.80;;;0.80;;
5521;SDS011;2783;48.730;8.006;2024-02-23T03:43:07;0.80;;;0.80;;
5521;SDS011;2783;48.730;8.006;2024-02-23T03:45:32;0.80;;;0.80;;
5521;SDS011;2783;48.730;8.006;2024-02-23T03:47:58;0.80;;;0.80;;
5521;SDS011;2783;48.730;8.006;2024-02-23T03:50:25;0.80;;;0.80;;
5521;SDS011;2783;48.730;8.006;2024-02-23T03:52:50;0.80;;;0.80;;
5521;SDS011;2783;48.730;8.006;2024-02-23T03:55:16;0.80;;;0.80;;
5521;SDS011;2783;48.730;8.006;2024-02-23T03:57:41;0.80;;;0.80;;
5521;SDS011;2783;48.730;8.006;2024-02-23T04:00:07;0.80;;;0.80;;
5521;SDS011;2783;48.730;8.006;2024-02-23T04:02:34;0.80;;;0.80;;
5521;SDS011;2783;48.730;8.006;2024-02-23T04:04:59;0.73;;;0.73;;
5521;SDS011;2783;48.730;8.006;2024-02-23T04:07:25;0.80;;;0.80;;
5521;SDS011;2783;48.730;8.006;2024-02-23T04:09:50;0.80;;;0.80;;
5521;SDS011;2783;48.730;8.006;2024-02-23T04:12:19;0.80;;;0.80;;
5521;SDS011;2783;48.730;8.006;2024-02-23T04:14:45;0.80;;;0.80;;
5521;SDS011;2783;48.730;8.006;2024-02-23T04:17:11;0.80;;;0.80;;
5521;SDS011;2783;48.730;8.006;2024-02-23T04:19:37;0.70;;;0.70;;
5521;SDS011;2783;48.730;8.006;2024-02-23T04:22:02;0.80;;;0.80;;
5521;SDS011;2783;48.730;8.006;2024-02-23T04:24:28;0.70;;;0.70;;
5521;SDS011;2783;48.730;8.006;2024-02-23T04:26:54;0.70;;;0.70;;
5521;SDS011;2783;48.730;8.006;2024-02-23T04:29:19;0.70;;;0.70;;
5521;SDS011;2783;48.730;8.006;2024-02-23T04:31:45;0.77;;;0.77;;
5521;SDS011;2783;48.730;8.006;2024-02-23T04:34:10;0.80;;;0.80;;
5521;SDS011;2783;48.730;8.006;2024-02-23T04:36:35;0.80;;;0.80;;
5521;SDS011;2783;48.730;8.006;2024-02-23T04:39:01;0.80;;;0.80;;
5521;SDS011;2783;48.730;8.006;2024-02-23T04:41:26;0.70;;;0.70;;
5521;SDS011;2783;48.730;8.006;2024-02-23T04:43:52;0.80;;;0.80;;
5521;SDS011;2783;48.730;8.006;2024-02-23T04:46:23;0.80;;;0.80;;
5521;SDS011;2783;48.730;8.006;2024-02-23T04:48:49;0.80;;;0.80;;
5521;SDS011;2783;48.730;8.006;2024-02-23T04:51:14;0.70;;;0.70;;
5521;SDS011;2783;48.730;8.006;2024-02-23T04:53:39;0.80;;;0.80;;
5521;SDS011;2783;48.730;8.006;2024-02-23T04:56:05;0.80;;;0.80;;
5521;SDS011;2783;48.730;8.006;2024-02-23T04:58:30;0.60;;;0.60;;
5521;SDS011;2783;48.730;8.006;2024-02-23T05:00:56;0.70;;;0.70;;
5521;SDS011;2783;48.730;8.006;2024-02-23T05:03:21;0.80;;;0.80;;
5521;SDS011;2783;48.730;8.006;2024-02-23T05:05:47;0.80;;;0.80;;
5521;SDS011;2783;48.730;8.006;2024-02-23T05:08:14;0.80;;;0.80;;
5521;SDS011;2783;48.730;8.006;2024-02-23T05:10:40;0.73;;;0.73;;
5521;SDS011;2783;48.730;8.006;2024-02-23T05:13:05;0.85;;;0.85;;
5521;SDS011;2783;48.730;8.006;2024-02-23T05:15:30;0.70;;;0.70;;
5521;SDS011;2783;48.730;8.006;2024-02-23T05:17:56;0.70;;;0.70;;
5521;SDS011;2783;48.730;8.006;2024-02-23T05:20:21;0.70;;;0.70;;
5521;SDS011;2783;48.730;8.006;2024-02-23T05:22:47;0.80;;;0.80;;
5521;SDS011;2783;48.730;8.006;2024-02-23T05:25:13;0.80;;;0.80;;
5521;SDS011;2783;48.730;8.006;2024-02-23T05:27:38;0.80;;;0.80;;
5521;SDS011;2783;48.730;8.006;2024-02-23T05:30:04;0.80;;;0.80;;
5521;SDS011;2783;48.730;8.006;2024-02-23T05:32:30;0.80;;;0.80;;
5521;SDS011;2783;48.730;8.006;2024-02-23T05:34:55;0.73;;;0.73;;
5521;SDS011;2783;48.730;8.006;2024-02-23T05:37:21;0.80;;;0.80;;
5521;SDS011;2783;48.730;8.006;2024-02-23T05:39:47;0.80;;;0.80;;
5521;SDS011;2783;48.730;8.006;2024-02-23T05:42:12;0.70;;;0.70;;
5521;SDS011;2783;48.730;8.006;2024-02-23T05:44:38;0.70;;;0.70;;
5521;SDS011;2783;48.730;8.006;2024-02-23T05:47:04;0.77;;;0.77;;
5521;SDS011;2783;48.730;8.006;2024-02-23T05:49:30;0.70;;;0.70;;
5521;SDS011;2783;48.730;8.006;2024-02-23T05:51:55;0.80;;;0.80;;
5521;SDS011;2783;48.730;8.006;2024-02-23T05:54:21;0.80;;;0.80;;
5521;SDS011;2783;48.730;8.006;2024-02-23T05:56:46;0.80;;;0.80;;
5521;SDS011;2783;48.730;8.006;2024-02-23T05:59:12;0.80;;;0.80;;
5521;SDS011;2783;48.730;8.006;2024-02-23T06:01:37;0.80;;;0.80;;
5521;SDS011;2783;48.730;8.006;2024-02-23T06:04:03;0.80;;;0.80;;
5521;SDS011;2783;48.730;8.006;2024-02-23T06:06:28;0.80;;;0.80;;
5521;SDS011;2783;48.730;8.006;2024-02-23T06:08:54;0.70;;;0.70;;
5521;SDS011;2783;48.730;8.006;2024-02-23T06:11:20;0.80;;;0.80;;
5521;SDS011;2783;48.730;8.006;2024-02-23T06:13:46;0.75;;;0.75;;
5521;SDS011;2783;48.730;8.006;2024-02-23T06:16:12;0.90;;;0.90;;
5521;SDS011;2783;48.730;8.006;2024-02-23T06:18:40;0.90;;;0.90;;
5521;SDS011;2783;48.730;8.006;2024-02-23T06:21:15;0.75;;;0.75;;
5521;SDS011;2783;48.730;8.006;2024-02-23T06:23:42;0.80;;;0.80;;
5521;SDS011;2783;48.730;8.006;2024-02-23T06:26:08;0.90;;;0.90;;
5521;SDS011;2783;48.730;8.006;2024-02-23T06:28:34;0.80;;;0.80;;
5521;SDS011;2783;48.730;8.006;2024-02-23T06:30:59;0.80;;;0.80;;
5521;SDS011;2783;48.730;8.006;2024-02-23T06:33:25;0.80;;;0.80;;
5521;SDS011;2783;48.730;8.006;2024-02-23T06:35:50;0.80;;;0.80;;
5521;SDS011;2783;48.730;8.006;2024-02-23T06:38:17;0.80;;;0.80;;
5521;SDS011;2783;48.730;8.006;2024-02-23T06:40:43;0.80;;;0.80;;
5521;SDS011;2783;48.730;8.006;2024-02-23T06:43:08;0.88;;;0.88;;
5521;SDS011;2783;48.730;8.006;2024-02-23T06:45:33;0.80;;;0.80;;
5521;SDS011;2783;48.730;8.006;2024-02-23T06:47:59;0.80;;;0.80;;
5521;SDS011;2783;48.730;8.006;2024-02-23T06:50:24;0.73;;;0.73;;
5521;SDS011;2783;48.730;8.006;2024-02-23T06:52:50;0.80;;;0.80;;
5521;SDS011;2783;48.730;8.006;2024-02-23T06:55:15;0.80;;;0.80;;
5521;SDS011;2783;48.730;8.006;2024-02-23T06:57:42;0.80;;;0.80;;
5521;SDS011;2783;48.730;8.006;2024-02-23T07:00:08;0.80;;;0.80;;
5521;SDS011;2783;48.730;8.006;2024-02-23T07:02:33;0.88;;;0.88;;
5521;SDS011;2783;48.730;8.006;2024-02-23T07:05:01;0.70;;;0.70;;
5521;SDS011;2783;48.730;8.006;2024-02-23T07:07:31;0.90;;;0.90;;
5521;SDS011;2783;48.730;8.006;2024-02-23T07:09:58;0.80;;;0.80;;
5521;SDS011;2783;48.730;8.006;2024-02-23T07:12:26;0.88;;;0.88;;
5521;SDS011;2783;48.730;8.006;2024-02-23T07:14:54;0.80;;;0.80;;
5521;SDS011;2783;48.730;8.006;2024-02-23T07:17:20;0.88;;;0.88;;
5521;SDS011;2783;48.730;8.006;2024-02-23T07:19:45;0.80;;;0.80;;
5521;SDS011;2783;48.730;8.006;2024-02-23T07:22:10;0.75;;;0.75;;
5521;SDS011;2783;48.730;8.006;2024-02-23T07:24:39;0.80;;;0.80;;
5521;SDS011;2783;48.730;8.006;2024-02-23T14:06:48;0.50;;;0.50;;
5521;SDS011;2783;48.730;8.006;2024-02-23T14:09:13;0.50;;;0.50;;
5521;SDS011;2783;48.730;8.006;2024-02-23T14:17:23;0.50;;;0.50;;
5521;SDS011;2783;48.730;8.006;2024-02-23T15:20:05;0.60;;;0.60;;
5521;SDS011;2783;48.730;8.006;2024-02-23T15:22:31;0.60;;;0.60;;
5521;SDS011;2783;48.730;8.006;2024-02-23T15:24:57;0.50;;;0.50;;
5521;SDS011;2783;48.730;8.006;2024-02-23T15:27:24;0.50;;;0.50;;
5521;SDS011;2783;48.730;8.006;2024-02-23T15:29:50;0.60;;;0.60;;
5521;SDS011;2783;48.730;8.006;2024-02-23T15:32:15;0.60;;;0.60;;
5521;SDS011;2783;48.730;8.006;2024-02-23T15:34:41;0.50;;;0.50;;
5521;SDS011;2783;48.730;8.006;2024-02-23T15:37:07;0.60;;;0.60;;
5521;SDS011;2783;48.730;8.006;2024-02-23T15:39:33;0.50;;;0.50;;
5521;SDS011;2783;48.730;8.006;2024-02-23T15:41:58;0.60;;;0.60;;
5521;SDS011;2783;48.730;8.006;2024-02-23T15:44:24;0.50;;;0.50;;
5521;SDS011;2783;48.730;8.006;2024-02-23T15:46:49;0.50;;;0.50;;
5521;SDS011;2783;48.730;8.006;2024-02-23T15:49:15;0.57;;;0.57;;
5521;SDS011;2783;48.730;8.006;2024-02-23T15:51:44;0.50;;;0.50;;
5521;SDS011;2783;48.730;8.006;2024-02-23T15:54:12;0.50;;;0.50;;
5521;SDS011;2783;48.730;8.006;2024-02-23T15:56:38;0.50;;;0.50;;
5521;SDS011;2783;48.730;8.006;2024-02-23T15:59:04;0.50;;;0.50;;
5521;SDS011;2783;48.730;8.006;2024-02-23T16:01:36;0.50;;;0.50;;
5521;SDS011;2783;48.730;8.006;2024-02-23T16:04:02;0.60;;;0.60;;
5521;SDS011;2783;48.730;8.006;2024-02-23T16:06:28;0.50;;;0.50;;
5521;SDS011;2783;48.730;8.006;2024-02-23T16:08:59;0.50;;;0.50;;
5521;SDS011;2783;48.730;8.006;2024-02-23T16:11:25;0.50;;;0.50;;
5521;SDS011;2783;48.730;8.006;2024-02-23T16:13:52;0.50;;;0.50;;
5521;SDS011;2783;48.730;8.006;2024-02-23T16:16:17;0.60;;;0.60;;
5521;SDS011;2783;48.730;8.006;2024-02-23T16:18:43;0.50;;;0.50;;
5521;SDS011;2783;48.730;8.006;2024-02-23T16:21:08;0.60;;;0.60;;
5521;SDS011;2783;48.730;8.006;2024-02-23T16:23:41;0.60;;;0.60;;
5521;SDS011;2783;48.730;8.006;2024-02-23T16:26:07;0.60;;;0.60;;
5521;SDS011;2783;48.730;8.006;2024-02-23T16:28:33;0.60;;;0.60;;
5521;SDS011;2783;48.730;8.006;2024-02-23T16:30:59;0.60;;;0.60;;
5521;SDS011;2783;48.730;8.006;2024-02-23T16:33:24;0.50;;;0.50;;
5521;SDS011;2783;48.730;8.006;2024-02-23T16:35:51;0.60;;;0.60;;
5521;SDS011;2783;48.730;8.006;2024-02-23T16:38:21;0.60;;;0.60;;
5521;SDS011;2783;48.730;8.006;2024-02-23T16:40:47;0.60;;;0.60;;
5521;SDS011;2783;48.730;8.006;2024-02-23T16:43:13;0.60;;;0.60;;
5521;SDS011;2783;48.730;8.006;2024-02-23T16:45:38;0.60;;;0.60;;
5521;SDS011;2783;48.730;8.006;2024-02-23T16:48:04;0.60;;;0.60;;
5521;SDS011;2783;48.730;8.006;2024-02-23T16:50:34;0.50;;;0.50;;
5521;SDS011;2783;48.730;8.006;2024-02-23T16:53:06;0.60;;;0.60;;
5521;SDS011;2783;48.730;8.006;2024-02-23T16:55:32;0.60;;;0.60;;
5521;SDS011;2783;48.730;8.006;2024-02-23T16:57:58;0.60;;;0.60;;
5521;SDS011;2783;48.730;8.006;2024-02-23T17:00:24;0.60;;;0.60;;
5521;SDS011;2783;48.730;8.006;2024-02-23T17:02:53;0.60;;;0.60;;
5521;SDS011;2783;48.730;8.006;2024-02-23T17:05:22;0.65;;;0.65;;
5521;SDS011;2783;48.730;8.006;2024-02-23T17:07:47;0.60;;;0.60;;
5521;SDS011;2783;48.730;8.006;2024-02-23T17:10:13;0.60;;;0.60;;
5521;SDS011;2783;48.730;8.006;2024-02-23T17:12:41;0.70;;;0.70;;
5521;SDS011;2783;48.730;8.006;2024-02-23T17:15:10;0.63;;;0.63;;
5521;SDS011;2783;48.730;8.006;2024-02-23T17:17:36;0.60;;;0.60;;
5521;SDS011;2783;48.730;8.006;2024-02-23T17:20:01;0.60;;;0.60;;
5521;SDS011;2783;48.730;8.006;2024-02-23T17:22:29;0.60;;;0.60;;
5521;SDS011;2783;48.730;8.006;2024-02-23T17:24:56;0.63;;;0.63;;
5521;SDS011;2783;48.730;8.006;2024-02-23T17:27:21;0.60;;;0.60;;
5521;SDS011;2783;48.730;8.006;2024-02-23T17:29:46;0.63;;;0.63;;
5521;SDS011;2783;48.730;8.006;2024-02-23T17:32:12;0.70;;;0.70;;
5521;SDS011;2783;48.730;8.006;2024-02-23T17:34:37;0.60;;;0.60;;
5521;SDS011;2783;48.730;8.006;2024-02-23T17:37:03;0.70;;;0.70;;
5521;SDS011;2783;48.730;8.006;2024-02-23T17:39:31;0.70;;;0.70;;
5521;SDS011;2783;48.730;8.006;2024-02-23T17:41:57;0.60;;;0.60;;
5521;SDS011;2783;48.730;8.006;2024-02-23T17:44:24;0.63;;;0.63;;
5521;SDS011;2783;48.730;8.006;2024-02-23T17:46:52;0.70;;;0.70;;
5521;SDS011;2783;48.730;8.006;2024-02-23T17:49:19;0.70;;;0.70;;
5521;SDS011;2783;48.730;8.006;2024-02-23T17:51:44;0.70;;;0.70;;
5521;SDS011;2783;48.730;8.006;2024-02-23T17:54:10;0.70;;;0.70;;
5521;SDS011;2783;48.730;8.006;2024-02-23T17:56:35;0.70;;;0.70;;
5521;SDS011;2783;48.730;8.006;2024-02-23T17:59:01;0.70;;;0.70;;
5521;SDS011;2783;48.730;8.006;2024-02-23T18:01:27;0.70;;;0.70;;
5521;SDS011;2783;48.730;8.006;2024-02-23T18:03:53;0.70;;;0.70;;
5521;SDS011;2783;48.730;8.006;2024-02-23T18:06:19;0.70;;;0.70;;
5521;SDS011;2783;48.730;8.006;2024-02-23T18:08:47;0.70;;;0.70;;
5521;SDS011;2783;48.730;8.006;2024-02-23T18:11:13;0.80;;;0.80;;
5521;SDS011;2783;48.730;8.006;2024-02-23T18:13:39;0.80;;;0.80;;
5521;SDS011;2783;48.730;8.006;2024-02-23T18:16:06;0.70;;;0.70;;
5521;SDS011;2783;48.730;8.006;2024-02-23T18:18:35;0.70;;;0.70;;
5521;SDS011;2783;48.730;8.006;2024-02-23T18:21:01;0.77;;;0.77;;
5521;SDS011;2783;48.730;8.006;2024-02-23T18:23:27;0.70;;;0.70;;
5521;SDS011;2783;48.730;8.006;2024-02-23T18:25:52;0.80;;;0.80;;
5521;SDS011;2783;48.730;8.006;2024-02-23T18:28:18;0.80;;;0.80;;
5521;SDS011;2783;48.730;8.006;2024-02-23T18:30:44;0.80;;;0.80;;
5521;SDS011;2783;48.730;8.006;2024-02-23T18:33:09;0.80;;;0.80;;
5521;SDS011;2783;48.730;8.006;2024-02-23T18:35:34;0.70;;;0.70;;
5521;SDS011;2783;48.730;8.006;2024-02-23T18:38:00;0.70;;;0.70;;
5521;SDS011;2783;48.730;8.006;2024-02-23T18:40:25;0.70;;;0.70;;
5521;SDS011;2783;48.730;8.006;2024-02-23T18:42:51;0.80;;;0.80;;
5521;SDS011;2783;48.730;8.006;2024-02-23T18:45:16;0.60;;;0.60;;
5521;SDS011;2783;48.730;8.006;2024-02-23T18:47:45;0.70;;;0.70;;
5521;SDS011;2783;48.730;8.006;2024-02-23T18:50:11;0.80;;;0.80;;
5521;SDS011;2783;48.730;8.006;2024-02-23T18:52:36;0.70;;;0.70;;
5521;SDS011;2783;48.730;8.006;2024-02-23T18:55:02;0.80;;;0.80;;
5521;SDS011;2783;48.730;8.006;2024-02-23T18:57:28;0.70;;;0.70;;
5521;SDS011;2783;48.730;8.006;2024-02-23T18:59:54;0.77;;;0.77;;
5521;SDS011;2783;48.730;8.006;2024-02-23T19:02:19;0.80;;;0.80;;
5521;SDS011;2783;48.730;8.006;2024-02-23T19:04:45;0.70;;;0.70;;
5521;SDS011;2783;48.730;8.006;2024-02-23T19:07:11;0.70;;;0.70;;
5521;SDS011;2783;48.730;8.006;2024-02-23T19:09:36;0.70;;;0.70;;
5521;SDS011;2783;48.730;8.006;2024-02-23T19:12:03;0.70;;;0.70;;
5521;SDS011;2783;48.730;8.006;2024-02-23T19:14:31;0.70;;;0.70;;
5521;SDS011;2783;48.730;8.006;2024-02-23T19:16:57;0.70;;;0.70;;
5521;SDS011;2783;48.730;8.006;2024-02-23T19:19:23;0.80;;;0.80;;
5521;SDS011;2783;48.730;8.006;2024-02-23T19:21:48;0.70;;;0.70;;
5521;SDS011;2783;48.730;8.006;2024-02-23T19:24:14;0.70;;;0.70;;
5521;SDS011;2783;48.730;8.006;2024-02-23T19:26:39;0.70;;;0.70;;
5521;SDS011;2783;48.730;8.006;2024-02-23T19:29:07;0.80;;;0.80;;
5521;SDS011;2783;48.730;8.006;2024-02-23T19:31:33;0.70;;;0.70;;
5521;SDS011;2783;48.730;8.006;2024-02-23T19:34:00;0.80;;;0.80;;
5521;SDS011;2783;48.730;8.006;2024-02-23T19:36:28;0.70;;;0.70;;
5521;SDS011;2783;48.730;8.006;2024-02-23T19:38:54;0.73;;;0.73;;
5521;SDS011;2783;48.730;8.006;2024-02-23T19:41:19;0.70;;;0.70;;
5521;SDS011;2783;48.730;8.006;2024-02-23T19:43:45;0.70;;;0.70;;
5521;SDS011;2783;48.730;8.006;2024-02-23T19:46:10;0.70;;;0.70;;
5521;SDS011;2783;48.730;8.006;2024-02-23T19:48:36;0.70;;;0.70;;
5521;SDS011;2783;48.730;8.006;2024-02-23T19:51:01;0.70;;;0.70;;
5521;SDS011;2783;48.730;8.006;2024-02-23T19:53:30;0.70;;;0.70;;
5521;SDS011;2783;48.730;8.006;2024-02-23T19:55:55;0.80;;;0.80;;
5521;SDS011;2783;48.730;8.006;2024-02-23T19:58:21;0.80;;;0.80;;
5521;SDS011;2783;48.730;8.006;2024-02-23T20:00:46;0.80;;;0.80;;
5521;SDS011;2783;48.730;8.006;2024-02-23T20:03:12;0.80;;;0.80;;
5521;SDS011;2783;48.730;8.006;2024-02-23T20:05:37;0.70;;;0.70;;
5521;SDS011;2783;48.730;8.006;2024-02-23T20:08:03;0.75;;;0.75;;
5521;SDS011;2783;48.730;8.006;2024-02-23T20:10:28;0.70;;;0.70;;
5521;SDS011;2783;48.730;8.006;2024-02-23T20:12:54;0.80;;;0.80;;
5521;SDS011;2783;48.730;8.006;2024-02-23T20:15:20;0.70;;;0.70;;
5521;SDS011;2783;48.730;8.006;2024-02-23T20:17:46;0.80;;;0.80;;
5521;SDS011;2783;48.730;8.006;2024-02-23T20:20:12;0.80;;;0.80;;
5521;SDS011;2783;48.730;8.006;2024-02-23T20:22:38;0.80;;;0.80;;
5521;SDS011;2783;48.730;8.006;2024-02-23T20:25:04;0.70;;;0.70;;
5521;SDS011;2783;48.730;8.006;2024-02-23T20:27:30;0.70;;;0.70;;
5521;SDS011;2783;48.730;8.006;2024-02-23T20:29:56;0.70;;;0.70;;
5521;SDS011;2783;48.730;8.006;2024-02-23T20:32:21;0.70;;;0.70;;
5521;SDS011;2783;48.730;8.006;2024-02-23T20:34:47;0.80;;;0.80;;
5521;SDS011;2783;48.730;8.006;2024-02-23T20:37:13;0.80;;;0.80;;
5521;SDS011;2783;48.730;8.006;2024-02-23T20:39:39;0.80;;;0.80;;
5521;SDS011;2783;48.730;8.006;2024-02-23T20:42:04;0.80;;;0.80;;
5521;SDS011;2783;48.730;8.006;2024-02-23T20:44:32;0.80;;;0.80;;
5521;SDS011;2783;48.730;8.006;2024-02-23T20:46:58;0.80;;;0.80;;
5521;SDS011;2783;48.730;8.006;2024-02-23T20:49:23;0.90;;;0.90;;
5521;SDS011;2783;48.730;8.006;2024-02-23T20:51:48;0.80;;;0.80;;
5521;SDS011;2783;48.730;8.006;2024-02-23T20:54:18;0.70;;;0.70;;
5521;SDS011;2783;48.730;8.006;2024-02-23T20:56:44;0.80;;;0.80;;
5521;SDS011;2783;48.730;8.006;2024-02-23T20:59:09;0.80;;;0.80;;
5521;SDS011;2783;48.730;8.006;2024-02-23T21:01:36;0.80;;;0.80;;
5521;SDS011;2783;48.730;8.006;2024-02-23T21:04:01;0.80;;;0.80;;
5521;SDS011;2783;48.730;8.006;2024-02-23T21:06:27;0.80;;;0.80;;
5521;SDS011;2783;48.730;8.006;2024-02-23T21:08:52;0.80;;;0.80;;
5521;SDS011;2783;48.730;8.006;2024-02-23T21:11:17;0.80;;;0.80;;
5521;SDS011;2783;48.730;8.006;2024-02-23T21:13:43;0.75;;;0.75;;
5521;SDS011;2783;48.730;8.006;2024-02-23T21:16:09;0.80;;;0.80;;
5521;SDS011;2783;48.730;8.006;2024-02-23T21:18:34;0.75;;;0.75;;
5521;SDS011;2783;48.730;8.006;2024-02-23T21:21:00;0.80;;;0.80;;
5521;SDS011;2783;48.730;8.006;2024-02-23T21:23:25;0.77;;;0.77;;
5521;SDS011;2783;48.730;8.006;2024-02-23T21:25:51;0.80;;;0.80;;
5521;SDS011;2783;48.730;8.006;2024-02-23T21:28:16;0.80;;;0.80;;
5521;SDS011;2783;48.730;8.006;2024-02-23T21:30:42;0.90;;;0.90;;
5521;SDS011;2783;48.730;8.006;2024-02-23T21:33:12;0.90;;;0.90;;
5521;SDS011;2783;48.730;8.006;2024-02-23T21:35:38;0.80;;;0.80;;
5521;SDS011;2783;48.730;8.006;2024-02-23T21:38:04;0.80;;;0.80;;
5521;SDS011;2783;48.730;8.006;2024-02-23T21:40:29;0.80;;;0.80;;
5521;SDS011;2783;48.730;8.006;2024-02-23T21:42:54;0.80;;;0.80;;
5521;SDS011;2783;48.730;8.006;2024-02-23T21:45:20;0.80;;;0.80;;
5521;SDS011;2783;48.730;8.006;2024-02-23T21:47:46;0.80;;;0.80;;
5521;SDS011;2783;48.730;8.006;2024-02-23T21:50:11;0.73;;;0.73;;
5521;SDS011;2783;48.730;8.006;2024-02-23T21:52:37;0.80;;;0.80;;
5521;SDS011;2783;48.730;8.006;2024-02-23T21:55:05;0.80;;;0.80;;
5521;SDS011;2783;48.730;8.006;2024-02-23T21:57:30;0.85;;;0.85;;
5521;SDS011;2783;48.730;8.006;2024-02-23T21:59:56;0.80;;;0.80;;
5521;SDS011;2783;48.730;8.006;2024-02-23T22:02:22;0.80;;;0.80;;
5521;SDS011;2783;48.730;8.006;2024-02-23T22:04:52;0.80;;;0.80;;
5521;SDS011;2783;48.730;8.006;2024-02-23T22:07:20;0.90;;;0.90;;
5521;SDS011;2783;48.730;8.006;2024-02-23T22:09:45;0.80;;;0.80;;
5521;SDS011;2783;48.730;8.006;2024-02-23T22:12:13;0.90;;;0.90;;
5521;SDS011;2783;48.730;8.006;2024-02-23T22:14:38;0.80;;;0.80;;
5521;SDS011;2783;48.730;8.006;2024-02-23T22:17:04;0.85;;;0.85;;
5521;SDS011;2783;48.730;8.006;2024-02-23T22:19:30;0.82;;;0.82;;
5521;SDS011;2783;48.730;8.006;2024-02-23T22:21:55;0.80;;;0.80;;
5521;SDS011;2783;48.730;8.006;2024-02-23T22:24:21;0.80;;;0.80;;
5521;SDS011;2783;48.730;8.006;2024-02-23T22:26:48;0.80;;;0.80;;
5521;SDS011;2783;48.730;8.006;2024-02-23T22:29:13;0.70;;;0.70;;
5521;SDS011;2783;48.730;8.006;2024-02-23T22:31:45;0.90;;;0.90;;
5521;SDS011;2783;48.730;8.006;2024-02-23T22:34:14;0.73;;;0.73;;
5521;SDS011;2783;48.730;8.006;2024-02-23T22:36:39;0.80;;;0.80;;
5521;SDS011;2783;48.730;8.006;2024-02-23T22:39:06;0.80;;;0.80;;
5521;SDS011;2783;48.730;8.006;2024-02-23T22:41:32;0.80;;;0.80;;
5521;SDS011;2783;48.730;8.006;2024-02-23T22:43:57;0.80;;;0.80;;
5521;SDS011;2783;48.730;8.006;2024-02-23T22:46:26;0.80;;;0.80;;
5521;SDS011;2783;48.730;8.006;2024-02-23T22:48:52;0.70;;;0.70;;
5521;SDS011;2783;48.730;8.006;2024-02-23T22:51:17;0.90;;;0.90;;
5521;SDS011;2783;48.730;8.006;2024-02-23T22:53:43;0.80;;;0.80;;